sensor_id;sensor_type;location;lat;lon;timestamp;P1;durP1;ratioP1;P2;durP2;ratioP2
11189;SDS011;5651;50.926;4.718;2023-04-03T00:00:14;21.42;;;13.27;;
11189;SDS011;5651;50.926;4.718;2023-04-03T00:02:40;19.88;;;13.23;;
11189;SDS011;5651;50.926;4.718;2023-04-03T00:05:06;24.42;;;14.07;;
11189;SDS011;5651;50.926;4.718;2023-04-03T00:07:32;20.30;;;11.93;;
11189;SDS011;5651;50.926;4.718;2023-04-03T00:09:58;19.58;;;14.30;;
11189;SDS011;5651;50.926;4.718;2023-04-03T00:12:24;20.63;;;13.60;;
11189;SDS011;5651;50.926;4.718;2023-04-03T00:14:50;23.67;;;14.40;;
11189;SDS011;5651;50.926;4.718;2023-04-03T00:17:15;21.27;;;14.35;;
11189;SDS011;5651;50.926;4.718;2023-04-03T00:19:41;23.35;;;14.02;;
11189;SDS011;5651;50.926;4.718;2023-04-03T00:22:07;22.33;;;15.02;;
11189;SDS011;5651;50.926;4.718;2023-04-03T00:24:33;22.83;;;14.38;;
11189;SDS011;5651;50.926;4.718;2023-04-03T00:26:58;23.17;;;14.57;;
11189;SDS011;5651;50.926;4.718;2023-04-03T00:29:24;25.05;;;14.90;;
11189;SDS011;5651;50.926;4.718;2023-04-03T00:31:50;26.92;;;15.00;;
11189;SDS011;5651;50.926;4.718;2023-04-03T00:34:16;23.30;;;13.80;;
11189;SDS011;5651;50.926;4.718;2023-04-03T00:36:42;24.27;;;15.02;;
11189;SDS011;5651;50.926;4.718;2023-04-03T00:39:08;22.52;;;13.23;;
11189;SDS011;5651;50.926;4.718;2023-04-03T00:41:33;27.90;;;15.27;;
11189;SDS011;5651;50.926;4.718;2023-04-03T00:44:00;23.58;;;14.85;;
11189;SDS011;5651;50.926;4.718;2023-04-03T00:46:26;22.90;;;14.45;;
11189;SDS011;5651;50.926;4.718;2023-04-03T00:48:52;20.65;;;13.15;;
11189;SDS011;5651;50.926;4.718;2023-04-03T00:51:19;21.90;;;13.85;;
11189;SDS011;5651;50.926;4.718;2023-04-03T00:53:51;26.93;;;14.00;;
11189;SDS011;5651;50.926;4.718;2023-04-03T00:56:21;23.33;;;14.45;;
11189;SDS011;5651;50.926;4.718;2023-04-03T00:58:51;26.55;;;14.80;;
11189;SDS011;5651;50.926;4.718;2023-04-03T01:01:24;22.15;;;13.52;;
11189;SDS011;5651;50.926;4.718;2023-04-03T01:03:52;33.55;;;14.73;;
11189;SDS011;5651;50.926;4.718;2023-04-03T01:06:20;21.17;;;13.75;;
11189;SDS011;5651;50.926;4.718;2023-04-03T01:08:49;22.73;;;13.70;;
11189;SDS011;5651;50.926;4.718;2023-04-03T01:11:16;21.58;;;14.05;;
11189;SDS011;5651;50.926;4.718;2023-04-03T01:13:42;20.08;;;13.48;;
11189;SDS011;5651;50.926;4.718;2023-04-03T01:16:08;24.95;;;14.73;;
11189;SDS011;5651;50.926;4.718;2023-04-03T01:18:34;21.75;;;13.32;;
11189;SDS011;5651;50.926;4.718;2023-04-03T01:21:08;21.33;;;14.18;;
11189;SDS011;5651;50.926;4.718;2023-04-03T01:26:11;25.63;;;14.43;;
11189;SDS011;5651;50.926;4.718;2023-04-03T01:28:37;22.73;;;13.82;;
11189;SDS011;5651;50.926;4.718;2023-04-03T01:33:41;23.88;;;14.77;;
11189;SDS011;5651;50.926;4.718;2023-04-03T01:36:08;22.55;;;14.63;;
11189;SDS011;5651;50.926;4.718;2023-04-03T01:38:35;21.23;;;13.70;;
11189;SDS011;5651;50.926;4.718;2023-04-03T01:41:01;20.80;;;13.77;;
11189;SDS011;5651;50.926;4.718;2023-04-03T01:43:27;22.80;;;12.75;;
11189;SDS011;5651;50.926;4.718;2023-04-03T01:45:53;19.08;;;13.05;;
11189;SDS011;5651;50.926;4.718;2023-04-03T01:48:20;22.85;;;15.05;;
11189;SDS011;5651;50.926;4.718;2023-04-03T01:50:46;24.23;;;13.60;;
11189;SDS011;5651;50.926;4.718;2023-04-03T01:53:12;19.75;;;13.25;;
11189;SDS011;5651;50.926;4.718;2023-04-03T01:55:38;21.67;;;14.15;;
11189;SDS011;5651;50.926;4.718;2023-04-03T01:58:04;24.42;;;14.32;;
11189;SDS011;5651;50.926;4.718;2023-04-03T02:00:30;21.63;;;13.45;;
11189;SDS011;5651;50.926;4.718;2023-04-03T02:02:56;22.80;;;13.77;;
11189;SDS011;5651;50.926;4.718;2023-04-03T02:05:22;23.92;;;14.20;;
11189;SDS011;5651;50.926;4.718;2023-04-03T02:07:48;23.48;;;14.00;;
11189;SDS011;5651;50.926;4.718;2023-04-03T02:10:14;21.77;;;13.65;;
11189;SDS011;5651;50.926;4.718;2023-04-03T02:12:40;23.95;;;13.77;;
11189;SDS011;5651;50.926;4.718;2023-04-03T02:15:06;23.02;;;13.50;;
11189;SDS011;5651;50.926;4.718;2023-04-03T02:17:32;21.08;;;12.60;;
11189;SDS011;5651;50.926;4.718;2023-04-03T02:19:58;20.77;;;12.48;;
11189;SDS011;5651;50.926;4.718;2023-04-03T02:22:24;26.27;;;14.10;;
11189;SDS011;5651;50.926;4.718;2023-04-03T02:24:49;22.15;;;13.85;;
11189;SDS011;5651;50.926;4.718;2023-04-03T02:27:17;22.95;;;13.75;;
11189;SDS011;5651;50.926;4.718;2023-04-03T02:29:43;25.35;;;13.77;;
11189;SDS011;5651;50.926;4.718;2023-04-03T02:32:09;21.73;;;14.43;;
11189;SDS011;5651;50.926;4.718;2023-04-03T02:34:35;21.98;;;13.43;;
11189;SDS011;5651;50.926;4.718;2023-04-03T02:37:01;23.98;;;14.73;;
11189;SDS011;5651;50.926;4.718;2023-04-03T02:39:27;24.05;;;14.50;;
11189;SDS011;5651;50.926;4.718;2023-04-03T02:41:53;24.08;;;14.07;;
11189;SDS011;5651;50.926;4.718;2023-04-03T02:44:19;23.48;;;13.80;;
11189;SDS011;5651;50.926;4.718;2023-04-03T02:46:44;23.48;;;13.75;;
11189;SDS011;5651;50.926;4.718;2023-04-03T02:49:10;21.80;;;13.73;;
11189;SDS011;5651;50.926;4.718;2023-04-03T02:51:36;22.75;;;12.85;;
11189;SDS011;5651;50.926;4.718;2023-04-03T02:54:02;22.73;;;12.98;;
11189;SDS011;5651;50.926;4.718;2023-04-03T02:56:28;21.85;;;13.10;;
11189;SDS011;5651;50.926;4.718;2023-04-03T02:58:54;21.27;;;12.38;;
11189;SDS011;5651;50.926;4.718;2023-04-03T03:01:19;21.55;;;13.05;;
11189;SDS011;5651;50.926;4.718;2023-04-03T03:03:45;22.23;;;13.27;;
11189;SDS011;5651;50.926;4.718;2023-04-03T03:06:15;25.70;;;13.95;;
11189;SDS011;5651;50.926;4.718;2023-04-03T03:08:42;22.63;;;13.02;;
11189;SDS011;5651;50.926;4.718;2023-04-03T03:11:08;22.52;;;13.95;;
11189;SDS011;5651;50.926;4.718;2023-04-03T03:13:34;21.65;;;14.38;;
11189;SDS011;5651;50.926;4.718;2023-04-03T03:16:01;26.10;;;13.85;;
11189;SDS011;5651;50.926;4.718;2023-04-03T03:18:27;23.35;;;13.52;;
11189;SDS011;5651;50.926;4.718;2023-04-03T03:20:54;21.70;;;12.63;;
11189;SDS011;5651;50.926;4.718;2023-04-03T03:23:22;21.73;;;12.60;;
11189;SDS011;5651;50.926;4.718;2023-04-03T03:25:53;20.50;;;13.48;;
11189;SDS011;5651;50.926;4.718;2023-04-03T03:30:49;25.27;;;12.18;;
11189;SDS011;5651;50.926;4.718;2023-04-03T03:33:15;24.90;;;13.70;;
11189;SDS011;5651;50.926;4.718;2023-04-03T03:35:42;21.13;;;13.07;;
11189;SDS011;5651;50.926;4.718;2023-04-03T03:38:08;21.88;;;13.02;;
11189;SDS011;5651;50.926;4.718;2023-04-03T03:40:35;26.67;;;13.55;;
11189;SDS011;5651;50.926;4.718;2023-04-03T03:43:00;23.83;;;14.35;;
11189;SDS011;5651;50.926;4.718;2023-04-03T03:45:26;23.08;;;13.25;;
11189;SDS011;5651;50.926;4.718;2023-04-03T03:47:52;22.83;;;12.38;;
11189;SDS011;5651;50.926;4.718;2023-04-03T03:50:18;23.33;;;12.82;;
11189;SDS011;5651;50.926;4.718;2023-04-03T03:52:44;20.45;;;13.23;;
11189;SDS011;5651;50.926;4.718;2023-04-03T03:55:10;24.73;;;12.70;;
11189;SDS011;5651;50.926;4.718;2023-04-03T03:57:36;24.48;;;13.85;;
11189;SDS011;5651;50.926;4.718;2023-04-03T04:00:02;22.23;;;13.00;;
11189;SDS011;5651;50.926;4.718;2023-04-03T04:02:29;25.42;;;15.10;;
11189;SDS011;5651;50.926;4.718;2023-04-03T04:04:55;25.50;;;14.77;;
11189;SDS011;5651;50.926;4.718;2023-04-03T04:07:21;24.85;;;14.35;;
11189;SDS011;5651;50.926;4.718;2023-04-03T04:09:47;23.77;;;14.30;;
11189;SDS011;5651;50.926;4.718;2023-04-03T04:12:13;23.45;;;14.55;;
11189;SDS011;5651;50.926;4.718;2023-04-03T04:14:39;25.70;;;14.52;;
11189;SDS011;5651;50.926;4.718;2023-04-03T04:17:05;22.13;;;13.35;;
11189;SDS011;5651;50.926;4.718;2023-04-03T04:19:31;25.08;;;13.82;;
11189;SDS011;5651;50.926;4.718;2023-04-03T04:21:58;22.13;;;13.52;;
11189;SDS011;5651;50.926;4.718;2023-04-03T04:24:24;21.17;;;14.18;;
11189;SDS011;5651;50.926;4.718;2023-04-03T04:26:50;25.63;;;14.77;;
11189;SDS011;5651;50.926;4.718;2023-04-03T04:29:16;30.50;;;15.40;;
11189;SDS011;5651;50.926;4.718;2023-04-03T04:31:42;25.20;;;15.50;;
11189;SDS011;5651;50.926;4.718;2023-04-03T04:34:08;23.20;;;13.70;;
11189;SDS011;5651;50.926;4.718;2023-04-03T04:36:34;26.73;;;14.80;;
11189;SDS011;5651;50.926;4.718;2023-04-03T04:38:59;23.92;;;13.95;;
11189;SDS011;5651;50.926;4.718;2023-04-03T04:41:25;25.58;;;13.95;;
11189;SDS011;5651;50.926;4.718;2023-04-03T04:43:51;25.23;;;14.50;;
11189;SDS011;5651;50.926;4.718;2023-04-03T04:46:18;24.55;;;14.10;;
11189;SDS011;5651;50.926;4.718;2023-04-03T04:48:44;27.60;;;14.43;;
11189;SDS011;5651;50.926;4.718;2023-04-03T04:51:10;23.45;;;14.02;;
11189;SDS011;5651;50.926;4.718;2023-04-03T04:53:37;30.02;;;14.70;;
11189;SDS011;5651;50.926;4.718;2023-04-03T04:56:03;24.77;;;14.30;;
11189;SDS011;5651;50.926;4.718;2023-04-03T04:58:29;24.15;;;13.63;;
11189;SDS011;5651;50.926;4.718;2023-04-03T05:01:02;24.35;;;13.18;;
11189;SDS011;5651;50.926;4.718;2023-04-03T05:03:31;25.00;;;13.27;;
11189;SDS011;5651;50.926;4.718;2023-04-03T05:05:57;29.00;;;15.02;;
11189;SDS011;5651;50.926;4.718;2023-04-03T05:08:23;23.20;;;13.82;;
11189;SDS011;5651;50.926;4.718;2023-04-03T05:10:49;30.10;;;14.45;;
11189;SDS011;5651;50.926;4.718;2023-04-03T05:13:16;26.02;;;14.70;;
11189;SDS011;5651;50.926;4.718;2023-04-03T05:15:42;31.90;;;15.50;;
11189;SDS011;5651;50.926;4.718;2023-04-03T05:18:08;23.85;;;14.00;;
11189;SDS011;5651;50.926;4.718;2023-04-03T05:20:34;27.17;;;14.52;;
11189;SDS011;5651;50.926;4.718;2023-04-03T05:23:00;24.92;;;14.48;;
11189;SDS011;5651;50.926;4.718;2023-04-03T05:25:26;25.40;;;14.40;;
11189;SDS011;5651;50.926;4.718;2023-04-03T05:27:52;28.15;;;14.18;;
11189;SDS011;5651;50.926;4.718;2023-04-03T05:30:18;29.80;;;15.80;;
11189;SDS011;5651;50.926;4.718;2023-04-03T05:32:44;26.38;;;15.57;;
11189;SDS011;5651;50.926;4.718;2023-04-03T05:35:10;28.02;;;16.33;;
11189;SDS011;5651;50.926;4.718;2023-04-03T05:37:36;27.67;;;16.05;;
11189;SDS011;5651;50.926;4.718;2023-04-03T05:40:06;29.58;;;15.38;;
11189;SDS011;5651;50.926;4.718;2023-04-03T05:42:32;29.10;;;15.32;;
11189;SDS011;5651;50.926;4.718;2023-04-03T05:44:58;31.33;;;15.38;;
11189;SDS011;5651;50.926;4.718;2023-04-03T05:47:24;32.95;;;16.00;;
11189;SDS011;5651;50.926;4.718;2023-04-03T05:49:50;31.52;;;16.45;;
11189;SDS011;5651;50.926;4.718;2023-04-03T05:52:20;31.05;;;16.50;;
11189;SDS011;5651;50.926;4.718;2023-04-03T05:57:16;27.73;;;15.48;;
11189;SDS011;5651;50.926;4.718;2023-04-03T05:59:42;30.08;;;16.65;;
11189;SDS011;5651;50.926;4.718;2023-04-03T06:02:10;31.77;;;17.58;;
11189;SDS011;5651;50.926;4.718;2023-04-03T06:04:37;37.22;;;19.38;;
11189;SDS011;5651;50.926;4.718;2023-04-03T06:07:03;37.17;;;20.25;;
11189;SDS011;5651;50.926;4.718;2023-04-03T06:09:30;34.33;;;17.88;;
11189;SDS011;5651;50.926;4.718;2023-04-03T06:11:56;32.55;;;18.73;;
11189;SDS011;5651;50.926;4.718;2023-04-03T06:14:24;32.35;;;18.02;;
11189;SDS011;5651;50.926;4.718;2023-04-03T06:16:51;36.83;;;18.95;;
11189;SDS011;5651;50.926;4.718;2023-04-03T06:19:18;40.67;;;19.55;;
11189;SDS011;5651;50.926;4.718;2023-04-03T06:21:44;34.08;;;19.40;;
11189;SDS011;5651;50.926;4.718;2023-04-03T06:24:10;36.83;;;20.48;;
11189;SDS011;5651;50.926;4.718;2023-04-03T06:26:39;41.97;;;23.02;;
11189;SDS011;5651;50.926;4.718;2023-04-03T06:29:05;41.05;;;23.33;;
11189;SDS011;5651;50.926;4.718;2023-04-03T06:31:32;45.95;;;23.83;;
11189;SDS011;5651;50.926;4.718;2023-04-03T06:33:58;45.17;;;23.80;;
11189;SDS011;5651;50.926;4.718;2023-04-03T06:36:24;48.22;;;23.60;;
11189;SDS011;5651;50.926;4.718;2023-04-03T06:38:50;47.92;;;24.92;;
11189;SDS011;5651;50.926;4.718;2023-04-03T06:41:16;50.17;;;26.02;;
11189;SDS011;5651;50.926;4.718;2023-04-03T06:43:43;57.42;;;28.77;;
11189;SDS011;5651;50.926;4.718;2023-04-03T06:46:20;53.80;;;30.88;;
11189;SDS011;5651;50.926;4.718;2023-04-03T06:48:47;52.25;;;30.83;;
11189;SDS011;5651;50.926;4.718;2023-04-03T06:51:18;60.75;;;35.05;;
11189;SDS011;5651;50.926;4.718;2023-04-03T06:53:46;56.95;;;33.28;;
11189;SDS011;5651;50.926;4.718;2023-04-03T06:56:13;63.35;;;36.03;;
11189;SDS011;5651;50.926;4.718;2023-04-03T06:58:40;53.63;;;32.80;;
11189;SDS011;5651;50.926;4.718;2023-04-03T07:01:07;57.45;;;33.83;;
11189;SDS011;5651;50.926;4.718;2023-04-03T07:03:35;55.50;;;33.95;;
11189;SDS011;5651;50.926;4.718;2023-04-03T07:06:02;52.28;;;34.92;;
11189;SDS011;5651;50.926;4.718;2023-04-03T07:08:29;56.35;;;34.17;;
11189;SDS011;5651;50.926;4.718;2023-04-03T07:10:55;50.58;;;33.20;;
11189;SDS011;5651;50.926;4.718;2023-04-03T07:13:21;51.75;;;34.13;;
11189;SDS011;5651;50.926;4.718;2023-04-03T07:15:47;49.65;;;31.45;;
11189;SDS011;5651;50.926;4.718;2023-04-03T07:18:13;46.28;;;32.28;;
11189;SDS011;5651;50.926;4.718;2023-04-03T07:20:39;43.85;;;30.02;;
11189;SDS011;5651;50.926;4.718;2023-04-03T07:23:06;40.28;;;29.83;;
11189;SDS011;5651;50.926;4.718;2023-04-03T07:25:32;44.13;;;28.33;;
11189;SDS011;5651;50.926;4.718;2023-04-03T07:27:59;32.53;;;24.58;;
11189;SDS011;5651;50.926;4.718;2023-04-03T07:30:24;34.45;;;23.33;;
11189;SDS011;5651;50.926;4.718;2023-04-03T07:32:51;32.53;;;21.90;;
11189;SDS011;5651;50.926;4.718;2023-04-03T07:35:17;32.65;;;20.67;;
11189;SDS011;5651;50.926;4.718;2023-04-03T07:37:44;31.67;;;20.13;;
11189;SDS011;5651;50.926;4.718;2023-04-03T07:40:10;33.60;;;20.23;;
11189;SDS011;5651;50.926;4.718;2023-04-03T07:42:36;28.08;;;18.60;;
11189;SDS011;5651;50.926;4.718;2023-04-03T07:45:03;24.00;;;16.95;;
11189;SDS011;5651;50.926;4.718;2023-04-03T07:47:29;21.85;;;15.27;;
11189;SDS011;5651;50.926;4.718;2023-04-03T07:49:56;20.33;;;14.55;;
11189;SDS011;5651;50.926;4.718;2023-04-03T07:52:23;19.30;;;13.10;;
11189;SDS011;5651;50.926;4.718;2023-04-03T07:54:49;20.58;;;12.52;;
11189;SDS011;5651;50.926;4.718;2023-04-03T07:57:15;21.30;;;11.98;;
11189;SDS011;5651;50.926;4.718;2023-04-03T07:59:41;13.20;;;10.38;;
11189;SDS011;5651;50.926;4.718;2023-04-03T08:02:09;17.10;;;10.50;;
11189;SDS011;5651;50.926;4.718;2023-04-03T08:04:35;15.45;;;9.93;;
11189;SDS011;5651;50.926;4.718;2023-04-03T08:07:01;12.35;;;8.70;;
11189;SDS011;5651;50.926;4.718;2023-04-03T08:09:27;13.45;;;9.30;;
11189;SDS011;5651;50.926;4.718;2023-04-03T08:11:53;16.88;;;8.65;;
11189;SDS011;5651;50.926;4.718;2023-04-03T08:14:19;12.52;;;8.43;;
11189;SDS011;5651;50.926;4.718;2023-04-03T08:16:46;14.48;;;9.10;;
11189;SDS011;5651;50.926;4.718;2023-04-03T08:19:13;15.48;;;9.13;;
11189;SDS011;5651;50.926;4.718;2023-04-03T08:21:41;13.40;;;7.47;;
11189;SDS011;5651;50.926;4.718;2023-04-03T08:24:07;10.90;;;7.55;;
11189;SDS011;5651;50.926;4.718;2023-04-03T08:26:34;10.52;;;6.57;;
11189;SDS011;5651;50.926;4.718;2023-04-03T08:29:00;11.18;;;6.53;;
11189;SDS011;5651;50.926;4.718;2023-04-03T08:31:26;11.07;;;7.00;;
11189;SDS011;5651;50.926;4.718;2023-04-03T08:33:52;13.35;;;6.07;;
11189;SDS011;5651;50.926;4.718;2023-04-03T08:36:23;10.73;;;6.00;;
11189;SDS011;5651;50.926;4.718;2023-04-03T08:38:51;12.63;;;6.35;;
11189;SDS011;5651;50.926;4.718;2023-04-03T08:49:54;11.48;;;5.25;;
11189;SDS011;5651;50.926;4.718;2023-04-03T08:55:00;9.38;;;4.65;;
11189;SDS011;5651;50.926;4.718;2023-04-03T08:57:35;7.75;;;5.18;;
11189;SDS011;5651;50.926;4.718;2023-04-03T09:00:06;8.20;;;4.50;;
11189;SDS011;5651;50.926;4.718;2023-04-03T09:02:43;10.48;;;4.38;;
11189;SDS011;5651;50.926;4.718;2023-04-03T09:05:14;10.57;;;4.95;;
11189;SDS011;5651;50.926;4.718;2023-04-03T09:10:46;9.23;;;4.32;;
11189;SDS011;5651;50.926;4.718;2023-04-03T09:15:37;6.45;;;3.72;;
11189;SDS011;5651;50.926;4.718;2023-04-03T09:18:11;6.40;;;4.10;;
11189;SDS011;5651;50.926;4.718;2023-04-03T09:23:34;10.43;;;3.90;;
11189;SDS011;5651;50.926;4.718;2023-04-03T09:26:09;7.32;;;3.38;;
11189;SDS011;5651;50.926;4.718;2023-04-03T09:28:44;10.13;;;4.47;;
11189;SDS011;5651;50.926;4.718;2023-04-03T09:31:27;8.82;;;4.13;;
11189;SDS011;5651;50.926;4.718;2023-04-03T09:33:57;8.65;;;3.30;;
11189;SDS011;5651;50.926;4.718;2023-04-03T09:36:37;10.05;;;3.88;;
11189;SDS011;5651;50.926;4.718;2023-04-03T09:39:04;8.75;;;4.30;;
11189;SDS011;5651;50.926;4.718;2023-04-03T09:41:31;8.50;;;4.03;;
11189;SDS011;5651;50.926;4.718;2023-04-03T09:43:58;8.65;;;4.32;;
11189;SDS011;5651;50.926;4.718;2023-04-03T09:46:25;7.03;;;3.80;;
11189;SDS011;5651;50.926;4.718;2023-04-03T09:48:57;10.20;;;3.85;;
11189;SDS011;5651;50.926;4.718;2023-04-03T09:51:28;5.43;;;3.17;;
11189;SDS011;5651;50.926;4.718;2023-04-03T09:53:55;8.93;;;3.90;;
11189;SDS011;5651;50.926;4.718;2023-04-03T09:56:23;9.50;;;3.80;;
11189;SDS011;5651;50.926;4.718;2023-04-03T09:59:13;6.75;;;4.05;;
11189;SDS011;5651;50.926;4.718;2023-04-03T10:01:43;6.38;;;3.22;;
11189;SDS011;5651;50.926;4.718;2023-04-03T10:04:41;6.72;;;2.72;;
11189;SDS011;5651;50.926;4.718;2023-04-03T10:10:14;3.88;;;2.55;;
11189;SDS011;5651;50.926;4.718;2023-04-03T10:12:44;4.90;;;3.08;;
11189;SDS011;5651;50.926;4.718;2023-04-03T10:15:12;7.75;;;2.80;;
11189;SDS011;5651;50.926;4.718;2023-04-03T10:17:54;6.47;;;2.72;;
11189;SDS011;5651;50.926;4.718;2023-04-03T10:28:20;6.68;;;2.53;;
11189;SDS011;5651;50.926;4.718;2023-04-03T10:31:06;5.35;;;2.40;;
11189;SDS011;5651;50.926;4.718;2023-04-03T10:39:16;5.17;;;2.33;;
11189;SDS011;5651;50.926;4.718;2023-04-03T10:47:24;5.07;;;2.10;;
11189;SDS011;5651;50.926;4.718;2023-04-03T10:52:37;4.95;;;2.13;;
11189;SDS011;5651;50.926;4.718;2023-04-03T10:55:24;6.38;;;2.47;;
11189;SDS011;5651;50.926;4.718;2023-04-03T10:57:59;6.55;;;2.40;;
11189;SDS011;5651;50.926;4.718;2023-04-03T11:00:30;4.03;;;2.28;;
11189;SDS011;5651;50.926;4.718;2023-04-03T11:03:45;4.38;;;2.58;;
11189;SDS011;5651;50.926;4.718;2023-04-03T11:05:54;5.15;;;2.15;;
11189;SDS011;5651;50.926;4.718;2023-04-03T11:08:26;6.13;;;2.08;;
11189;SDS011;5651;50.926;4.718;2023-04-03T11:11:03;6.22;;;2.42;;
11189;SDS011;5651;50.926;4.718;2023-04-03T11:13:43;4.50;;;1.90;;
11189;SDS011;5651;50.926;4.718;2023-04-03T11:16:16;5.45;;;2.10;;
11189;SDS011;5651;50.926;4.718;2023-04-03T11:21:40;8.70;;;2.38;;
11189;SDS011;5651;50.926;4.718;2023-04-03T11:24:15;5.38;;;2.28;;
11189;SDS011;5651;50.926;4.718;2023-04-03T11:26:46;5.85;;;2.10;;
11189;SDS011;5651;50.926;4.718;2023-04-03T11:29:17;3.70;;;2.05;;
11189;SDS011;5651;50.926;4.718;2023-04-03T11:31:54;4.03;;;1.60;;
11189;SDS011;5651;50.926;4.718;2023-04-03T11:34:33;4.60;;;1.50;;
11189;SDS011;5651;50.926;4.718;2023-04-03T11:37:51;4.45;;;1.77;;
11189;SDS011;5651;50.926;4.718;2023-04-03T11:40:00;5.13;;;1.70;;
11189;SDS011;5651;50.926;4.718;2023-04-03T11:42:42;6.10;;;2.03;;
11189;SDS011;5651;50.926;4.718;2023-04-03T11:45:25;4.97;;;1.80;;
11189;SDS011;5651;50.926;4.718;2023-04-03T11:48:02;3.10;;;1.60;;
11189;SDS011;5651;50.926;4.718;2023-04-03T11:50:38;5.22;;;2.00;;
11189;SDS011;5651;50.926;4.718;2023-04-03T12:13:39;3.40;;;1.63;;
11189;SDS011;5651;50.926;4.718;2023-04-03T12:16:29;6.22;;;1.83;;
11189;SDS011;5651;50.926;4.718;2023-04-03T12:19:01;5.50;;;1.75;;
11189;SDS011;5651;50.926;4.718;2023-04-03T12:34:53;5.88;;;2.67;;
11189;SDS011;5651;50.926;4.718;2023-04-03T12:42:42;3.35;;;1.80;;
11189;SDS011;5651;50.926;4.718;2023-04-03T12:45:23;3.88;;;1.90;;
11189;SDS011;5651;50.926;4.718;2023-04-03T12:47:50;4.65;;;2.22;;
11189;SDS011;5651;50.926;4.718;2023-04-03T12:50:33;4.78;;;2.00;;
11189;SDS011;5651;50.926;4.718;2023-04-03T12:53:00;3.78;;;2.00;;
11189;SDS011;5651;50.926;4.718;2023-04-03T12:55:27;6.07;;;2.35;;
11189;SDS011;5651;50.926;4.718;2023-04-03T12:57:53;5.43;;;2.53;;
11189;SDS011;5651;50.926;4.718;2023-04-03T13:02:48;4.18;;;1.80;;
11189;SDS011;5651;50.926;4.718;2023-04-03T13:05:15;4.13;;;2.00;;
11189;SDS011;5651;50.926;4.718;2023-04-03T13:07:43;5.90;;;2.20;;
11189;SDS011;5651;50.926;4.718;2023-04-03T13:10:18;4.57;;;2.45;;
11189;SDS011;5651;50.926;4.718;2023-04-03T13:12:55;4.20;;;1.90;;
11189;SDS011;5651;50.926;4.718;2023-04-03T13:15:27;5.20;;;2.33;;
11189;SDS011;5651;50.926;4.718;2023-04-03T13:17:55;3.20;;;1.90;;
11189;SDS011;5651;50.926;4.718;2023-04-03T13:25:19;3.30;;;2.03;;
11189;SDS011;5651;50.926;4.718;2023-04-03T13:27:47;6.85;;;2.08;;
11189;SDS011;5651;50.926;4.718;2023-04-03T13:30:32;4.50;;;2.00;;
11189;SDS011;5651;50.926;4.718;2023-04-03T13:33:03;4.03;;;1.90;;
11189;SDS011;5651;50.926;4.718;2023-04-03T13:35:35;4.28;;;2.05;;
11189;SDS011;5651;50.926;4.718;2023-04-03T13:38:06;3.45;;;2.03;;
11189;SDS011;5651;50.926;4.718;2023-04-03T13:40:49;3.67;;;1.90;;
11189;SDS011;5651;50.926;4.718;2023-04-03T13:43:21;3.00;;;1.98;;
11189;SDS011;5651;50.926;4.718;2023-04-03T13:48:22;5.68;;;2.17;;
11189;SDS011;5651;50.926;4.718;2023-04-03T13:53:46;2.88;;;1.70;;
11189;SDS011;5651;50.926;4.718;2023-04-03T14:01:42;5.50;;;1.67;;
11189;SDS011;5651;50.926;4.718;2023-04-03T14:04:15;4.68;;;2.10;;
11189;SDS011;5651;50.926;4.718;2023-04-03T14:06:43;3.50;;;2.03;;
11189;SDS011;5651;50.926;4.718;2023-04-03T14:09:09;4.03;;;2.00;;
11189;SDS011;5651;50.926;4.718;2023-04-03T14:11:36;4.90;;;2.10;;
11189;SDS011;5651;50.926;4.718;2023-04-03T14:14:05;4.00;;;2.17;;
11189;SDS011;5651;50.926;4.718;2023-04-03T14:16:38;5.35;;;2.22;;
11189;SDS011;5651;50.926;4.718;2023-04-03T14:19:06;5.05;;;1.90;;
11189;SDS011;5651;50.926;4.718;2023-04-03T14:21:32;4.03;;;2.10;;
11189;SDS011;5651;50.926;4.718;2023-04-03T14:23:57;4.18;;;1.80;;
11189;SDS011;5651;50.926;4.718;2023-04-03T14:26:23;2.55;;;1.77;;
11189;SDS011;5651;50.926;4.718;2023-04-03T14:28:52;2.53;;;1.67;;
11189;SDS011;5651;50.926;4.718;2023-04-03T14:31:23;5.63;;;2.45;;
11189;SDS011;5651;50.926;4.718;2023-04-03T14:33:49;3.45;;;1.52;;
11189;SDS011;5651;50.926;4.718;2023-04-03T14:36:22;4.80;;;1.70;;
11189;SDS011;5651;50.926;4.718;2023-04-03T14:38:50;3.03;;;1.75;;
11189;SDS011;5651;50.926;4.718;2023-04-03T14:41:19;4.03;;;1.90;;
11189;SDS011;5651;50.926;4.718;2023-04-03T14:43:46;6.85;;;2.70;;
11189;SDS011;5651;50.926;4.718;2023-04-03T14:46:24;2.80;;;1.48;;
11189;SDS011;5651;50.926;4.718;2023-04-03T14:48:53;7.78;;;3.00;;
11189;SDS011;5651;50.926;4.718;2023-04-03T14:51:19;2.95;;;1.67;;
11189;SDS011;5651;50.926;4.718;2023-04-03T14:53:45;7.95;;;2.15;;
11189;SDS011;5651;50.926;4.718;2023-04-03T14:56:14;6.13;;;2.15;;
11189;SDS011;5651;50.926;4.718;2023-04-03T14:58:43;7.27;;;2.50;;
11189;SDS011;5651;50.926;4.718;2023-04-03T15:01:10;8.60;;;2.58;;
11189;SDS011;5651;50.926;4.718;2023-04-03T15:03:37;4.45;;;2.22;;
11189;SDS011;5651;50.926;4.718;2023-04-03T15:06:03;6.10;;;3.45;;
11189;SDS011;5651;50.926;4.718;2023-04-03T15:08:29;4.78;;;2.30;;
11189;SDS011;5651;50.926;4.718;2023-04-03T15:10:55;4.20;;;2.20;;
11189;SDS011;5651;50.926;4.718;2023-04-03T15:13:21;8.05;;;2.60;;
11189;SDS011;5651;50.926;4.718;2023-04-03T15:15:48;7.13;;;2.50;;
11189;SDS011;5651;50.926;4.718;2023-04-03T15:18:19;4.78;;;2.08;;
11189;SDS011;5651;50.926;4.718;2023-04-03T15:20:48;3.65;;;2.13;;
11189;SDS011;5651;50.926;4.718;2023-04-03T15:23:14;3.97;;;2.15;;
11189;SDS011;5651;50.926;4.718;2023-04-03T15:25:45;3.58;;;2.20;;
11189;SDS011;5651;50.926;4.718;2023-04-03T15:30:32;4.65;;;2.38;;
11189;SDS011;5651;50.926;4.718;2023-04-03T15:33:04;5.18;;;2.45;;
11189;SDS011;5651;50.926;4.718;2023-04-03T15:35:30;5.85;;;3.28;;
11189;SDS011;5651;50.926;4.718;2023-04-03T15:37:56;5.25;;;2.85;;
11189;SDS011;5651;50.926;4.718;2023-04-03T15:40:21;7.50;;;2.60;;
11189;SDS011;5651;50.926;4.718;2023-04-03T15:42:47;7.18;;;2.50;;
11189;SDS011;5651;50.926;4.718;2023-04-03T15:45:13;6.85;;;3.15;;
11189;SDS011;5651;50.926;4.718;2023-04-03T15:47:39;5.65;;;2.47;;
11189;SDS011;5651;50.926;4.718;2023-04-03T15:50:05;5.10;;;2.42;;
11189;SDS011;5651;50.926;4.718;2023-04-03T15:52:33;5.75;;;2.90;;
11189;SDS011;5651;50.926;4.718;2023-04-03T15:54:59;4.32;;;2.65;;
11189;SDS011;5651;50.926;4.718;2023-04-03T15:57:25;5.45;;;2.30;;
11189;SDS011;5651;50.926;4.718;2023-04-03T15:59:52;4.85;;;2.50;;
11189;SDS011;5651;50.926;4.718;2023-04-03T16:02:18;4.22;;;2.30;;
11189;SDS011;5651;50.926;4.718;2023-04-03T16:04:44;5.47;;;2.60;;
11189;SDS011;5651;50.926;4.718;2023-04-03T16:07:10;3.85;;;2.40;;
11189;SDS011;5651;50.926;4.718;2023-04-03T16:09:36;4.35;;;2.22;;
11189;SDS011;5651;50.926;4.718;2023-04-03T16:12:02;9.07;;;2.60;;
11189;SDS011;5651;50.926;4.718;2023-04-03T16:14:28;5.05;;;2.17;;
11189;SDS011;5651;50.926;4.718;2023-04-03T16:16:56;5.20;;;2.78;;
11189;SDS011;5651;50.926;4.718;2023-04-03T16:19:23;6.30;;;2.60;;
11189;SDS011;5651;50.926;4.718;2023-04-03T16:21:49;4.75;;;2.42;;
11189;SDS011;5651;50.926;4.718;2023-04-03T16:24:15;6.32;;;2.33;;
11189;SDS011;5651;50.926;4.718;2023-04-03T16:26:41;5.15;;;2.45;;
11189;SDS011;5651;50.926;4.718;2023-04-03T16:29:07;5.50;;;2.63;;
11189;SDS011;5651;50.926;4.718;2023-04-03T16:31:33;4.47;;;2.08;;
11189;SDS011;5651;50.926;4.718;2023-04-03T16:33:59;8.20;;;3.10;;
11189;SDS011;5651;50.926;4.718;2023-04-03T16:36:26;5.80;;;2.67;;
11189;SDS011;5651;50.926;4.718;2023-04-03T16:38:51;5.50;;;2.28;;
11189;SDS011;5651;50.926;4.718;2023-04-03T16:41:17;8.55;;;2.70;;
11189;SDS011;5651;50.926;4.718;2023-04-03T16:43:43;5.80;;;2.63;;
11189;SDS011;5651;50.926;4.718;2023-04-03T16:46:09;6.13;;;2.60;;
11189;SDS011;5651;50.926;4.718;2023-04-03T16:48:35;6.15;;;2.22;;